sensor_id;sensor_type;location;lat;lon;timestamp;P1;durP1;ratioP1;P2;durP2;ratioP2
10230;SDS011;62604;49.432;8.680;2023-07-31T00:01:01;4.40;;;3.95;;
10230;SDS011;62604;49.432;8.680;2023-07-31T00:03:28;4.35;;;4.10;;
10230;SDS011;62604;49.432;8.680;2023-07-31T00:05:55;4.18;;;3.80;;
10230;SDS011;62604;49.432;8.680;2023-07-31T00:08:23;4.03;;;3.80;;
10230;SDS011;62604;49.432;8.680;2023-07-31T00:10:51;4.50;;;4.13;;
10230;SDS011;62604;49.432;8.680;2023-07-31T00:13:18;6.22;;;4.00;;
10230;SDS011;62604;49.432;8.680;2023-07-31T00:15:45;5.85;;;4.03;;
10230;SDS011;62604;49.432;8.680;2023-07-31T00:18:12;4.82;;;4.40;;
10230;SDS011;62604;49.432;8.680;2023-07-31T00:20:39;4.30;;;4.00;;
10230;SDS011;62604;49.432;8.680;2023-07-31T00:23:06;6.00;;;3.88;;
10230;SDS011;62604;49.432;8.680;2023-07-31T00:25:34;4.38;;;4.07;;
10230;SDS011;62604;49.432;8.680;2023-07-31T00:28:01;4.40;;;4.10;;
10230;SDS011;62604;49.432;8.680;2023-07-31T00:30:28;4.32;;;4.03;;
10230;SDS011;62604;49.432;8.680;2023-07-31T00:32:55;4.05;;;3.60;;
10230;SDS011;62604;49.432;8.680;2023-07-31T00:35:21;5.35;;;4.10;;
10230;SDS011;62604;49.432;8.680;2023-07-31T00:37:48;5.40;;;4.03;;
10230;SDS011;62604;49.432;8.680;2023-07-31T00:40:15;6.28;;;4.00;;
10230;SDS011;62604;49.432;8.680;2023-07-31T00:42:44;4.40;;;4.07;;
10230;SDS011;62604;49.432;8.680;2023-07-31T00:45:11;4.30;;;3.95;;
10230;SDS011;62604;49.432;8.680;2023-07-31T00:47:37;3.92;;;3.67;;
10230;SDS011;62604;49.432;8.680;2023-07-31T00:50:05;4.10;;;3.80;;
10230;SDS011;62604;49.432;8.680;2023-07-31T00:52:36;4.53;;;4.13;;
10230;SDS011;62604;49.432;8.680;2023-07-31T00:55:03;4.70;;;3.60;;
10230;SDS011;62604;49.432;8.680;2023-07-31T00:57:31;4.30;;;3.90;;
10230;SDS011;62604;49.432;8.680;2023-07-31T01:00:01;4.47;;;4.07;;
10230;SDS011;62604;49.432;8.680;2023-07-31T01:02:28;3.90;;;3.70;;
10230;SDS011;62604;49.432;8.680;2023-07-31T01:04:58;4.68;;;4.10;;
10230;SDS011;62604;49.432;8.680;2023-07-31T01:07:35;4.07;;;3.78;;
10230;SDS011;62604;49.432;8.680;2023-07-31T01:10:11;5.45;;;4.30;;
10230;SDS011;62604;49.432;8.680;2023-07-31T01:12:43;3.95;;;3.75;;
10230;SDS011;62604;49.432;8.680;2023-07-31T01:15:13;4.15;;;3.90;;
10230;SDS011;62604;49.432;8.680;2023-07-31T01:17:40;4.03;;;3.80;;
10230;SDS011;62604;49.432;8.680;2023-07-31T01:20:09;4.22;;;3.92;;
10230;SDS011;62604;49.432;8.680;2023-07-31T01:25:54;4.60;;;4.20;;
10230;SDS011;62604;49.432;8.680;2023-07-31T01:28:27;4.82;;;3.80;;
10230;SDS011;62604;49.432;8.680;2023-07-31T01:30:59;5.13;;;3.92;;
10230;SDS011;62604;49.432;8.680;2023-07-31T01:33:28;4.10;;;3.80;;
10230;SDS011;62604;49.432;8.680;2023-07-31T01:35:56;4.70;;;3.92;;
10230;SDS011;62604;49.432;8.680;2023-07-31T01:38:23;4.20;;;3.90;;
10230;SDS011;62604;49.432;8.680;2023-07-31T01:40:51;4.20;;;3.90;;
10230;SDS011;62604;49.432;8.680;2023-07-31T01:43:20;4.10;;;3.75;;
10230;SDS011;62604;49.432;8.680;2023-07-31T01:45:47;4.15;;;3.88;;
10230;SDS011;62604;49.432;8.680;2023-07-31T01:48:13;4.15;;;3.92;;
10230;SDS011;62604;49.432;8.680;2023-07-31T01:50:40;4.30;;;4.00;;
10230;SDS011;62604;49.432;8.680;2023-07-31T01:53:07;5.60;;;3.90;;
10230;SDS011;62604;49.432;8.680;2023-07-31T01:55:36;4.35;;;4.05;;
10230;SDS011;62604;49.432;8.680;2023-07-31T01:58:03;4.43;;;4.13;;
10230;SDS011;62604;49.432;8.680;2023-07-31T02:00:31;4.32;;;4.03;;
10230;SDS011;62604;49.432;8.680;2023-07-31T02:02:59;4.03;;;3.72;;
10230;SDS011;62604;49.432;8.680;2023-07-31T02:05:26;4.85;;;4.35;;
10230;SDS011;62604;49.432;8.680;2023-07-31T02:07:53;4.40;;;4.00;;
10230;SDS011;62604;49.432;8.680;2023-07-31T02:10:20;4.70;;;3.88;;
10230;SDS011;62604;49.432;8.680;2023-07-31T02:12:47;5.45;;;3.88;;
10230;SDS011;62604;49.432;8.680;2023-07-31T02:15:13;5.10;;;4.03;;
10230;SDS011;62604;49.432;8.680;2023-07-31T02:17:42;4.22;;;3.83;;
10230;SDS011;62604;49.432;8.680;2023-07-31T02:20:09;4.35;;;4.05;;
10230;SDS011;62604;49.432;8.680;2023-07-31T02:22:36;4.28;;;3.97;;
10230;SDS011;62604;49.432;8.680;2023-07-31T02:25:03;4.63;;;4.32;;
10230;SDS011;62604;49.432;8.680;2023-07-31T02:27:31;4.32;;;3.90;;
10230;SDS011;62604;49.432;8.680;2023-07-31T02:29:57;4.45;;;4.05;;
10230;SDS011;62604;49.432;8.680;2023-07-31T02:32:25;4.57;;;4.10;;
10230;SDS011;62604;49.432;8.680;2023-07-31T02:34:53;6.47;;;4.13;;
10230;SDS011;62604;49.432;8.680;2023-07-31T02:37:20;4.38;;;4.07;;
10230;SDS011;62604;49.432;8.680;2023-07-31T02:39:47;4.22;;;3.95;;
10230;SDS011;62604;49.432;8.680;2023-07-31T02:42:14;5.65;;;4.35;;
10230;SDS011;62604;49.432;8.680;2023-07-31T02:44:41;4.40;;;4.10;;
10230;SDS011;62604;49.432;8.680;2023-07-31T02:47:07;4.13;;;3.83;;
10230;SDS011;62604;49.432;8.680;2023-07-31T02:49:34;5.72;;;4.20;;
10230;SDS011;62604;49.432;8.680;2023-07-31T02:52:03;5.03;;;4.10;;
10230;SDS011;62604;49.432;8.680;2023-07-31T02:54:30;5.38;;;3.95;;
10230;SDS011;62604;49.432;8.680;2023-07-31T02:56:57;4.57;;;4.28;;
10230;SDS011;62604;49.432;8.680;2023-07-31T02:59:24;4.03;;;3.72;;
10230;SDS011;62604;49.432;8.680;2023-07-31T03:01:55;4.20;;;3.90;;
10230;SDS011;62604;49.432;8.680;2023-07-31T03:04:23;4.50;;;4.07;;
10230;SDS011;62604;49.432;8.680;2023-07-31T03:06:50;4.38;;;4.07;;
10230;SDS011;62604;49.432;8.680;2023-07-31T03:09:18;4.95;;;4.03;;
10230;SDS011;62604;49.432;8.680;2023-07-31T03:11:45;5.00;;;4.47;;
10230;SDS011;62604;49.432;8.680;2023-07-31T03:14:12;4.13;;;3.75;;
10230;SDS011;62604;49.432;8.680;2023-07-31T03:16:39;4.32;;;4.03;;
10230;SDS011;62604;49.432;8.680;2023-07-31T03:19:06;4.20;;;3.92;;
10230;SDS011;62604;49.432;8.680;2023-07-31T03:21:35;4.13;;;3.83;;
10230;SDS011;62604;49.432;8.680;2023-07-31T03:24:02;5.47;;;3.97;;
10230;SDS011;62604;49.432;8.680;2023-07-31T03:26:32;4.32;;;4.03;;
10230;SDS011;62604;49.432;8.680;2023-07-31T03:28:59;4.20;;;3.90;;
10230;SDS011;62604;49.432;8.680;2023-07-31T03:31:26;6.00;;;4.05;;
10230;SDS011;62604;49.432;8.680;2023-07-31T03:33:53;4.38;;;3.97;;
10230;SDS011;62604;49.432;8.680;2023-07-31T03:36:20;4.45;;;4.15;;
10230;SDS011;62604;49.432;8.680;2023-07-31T03:38:47;4.93;;;4.00;;
10230;SDS011;62604;49.432;8.680;2023-07-31T03:41:13;4.85;;;4.40;;
10230;SDS011;62604;49.432;8.680;2023-07-31T03:43:42;4.85;;;4.47;;
10230;SDS011;62604;49.432;8.680;2023-07-31T03:46:08;4.40;;;4.10;;
10230;SDS011;62604;49.432;8.680;2023-07-31T03:48:39;4.53;;;4.22;;
10230;SDS011;62604;49.432;8.680;2023-07-31T03:51:05;4.45;;;4.00;;
10230;SDS011;62604;49.432;8.680;2023-07-31T03:53:34;4.05;;;3.75;;
10230;SDS011;62604;49.432;8.680;2023-07-31T03:56:01;4.35;;;3.95;;
10230;SDS011;62604;49.432;8.680;2023-07-31T03:58:27;6.68;;;4.25;;
10230;SDS011;62604;49.432;8.680;2023-07-31T04:00:56;4.32;;;4.00;;
10230;SDS011;62604;49.432;8.680;2023-07-31T04:03:24;7.90;;;4.30;;
10230;SDS011;62604;49.432;8.680;2023-07-31T04:05:53;6.25;;;4.10;;
10230;SDS011;62604;49.432;8.680;2023-07-31T04:08:21;4.28;;;3.97;;
10230;SDS011;62604;49.432;8.680;2023-07-31T04:10:49;4.25;;;3.95;;
10230;SDS011;62604;49.432;8.680;2023-07-31T04:13:16;5.25;;;4.50;;
10230;SDS011;62604;49.432;8.680;2023-07-31T04:15:43;4.40;;;4.10;;
10230;SDS011;62604;49.432;8.680;2023-07-31T04:18:16;4.45;;;4.13;;
10230;SDS011;62604;49.432;8.680;2023-07-31T04:20:43;4.65;;;4.35;;
10230;SDS011;62604;49.432;8.680;2023-07-31T04:23:10;5.72;;;4.07;;
10230;SDS011;62604;49.432;8.680;2023-07-31T04:25:37;4.35;;;4.05;;
10230;SDS011;62604;49.432;8.680;2023-07-31T04:28:04;4.65;;;4.10;;
10230;SDS011;62604;49.432;8.680;2023-07-31T04:30:33;4.78;;;4.32;;
10230;SDS011;62604;49.432;8.680;2023-07-31T04:33:03;4.50;;;4.20;;
10230;SDS011;62604;49.432;8.680;2023-07-31T04:35:31;7.53;;;4.32;;
10230;SDS011;62604;49.432;8.680;2023-07-31T04:37:58;4.72;;;4.38;;
10230;SDS011;62604;49.432;8.680;2023-07-31T04:40:25;5.10;;;4.60;;
10230;SDS011;62604;49.432;8.680;2023-07-31T04:42:52;4.18;;;3.90;;
10230;SDS011;62604;49.432;8.680;2023-07-31T04:45:18;4.95;;;4.47;;
10230;SDS011;62604;49.432;8.680;2023-07-31T04:47:45;4.90;;;4.50;;
10230;SDS011;62604;49.432;8.680;2023-07-31T04:50:12;5.30;;;4.22;;
10230;SDS011;62604;49.432;8.680;2023-07-31T04:52:41;4.65;;;4.35;;
10230;SDS011;62604;49.432;8.680;2023-07-31T04:55:08;4.07;;;3.83;;
10230;SDS011;62604;49.432;8.680;2023-07-31T04:57:35;4.55;;;4.20;;
10230;SDS011;62604;49.432;8.680;2023-07-31T05:00:02;4.57;;;4.28;;
10230;SDS011;62604;49.432;8.680;2023-07-31T05:02:30;4.32;;;4.03;;
10230;SDS011;62604;49.432;8.680;2023-07-31T05:04:57;4.30;;;4.00;;
10230;SDS011;62604;49.432;8.680;2023-07-31T05:07:24;4.65;;;4.35;;
10230;SDS011;62604;49.432;8.680;2023-07-31T05:09:52;5.55;;;4.50;;
10230;SDS011;62604;49.432;8.680;2023-07-31T05:12:19;4.70;;;4.30;;
10230;SDS011;62604;49.432;8.680;2023-07-31T05:14:46;5.85;;;3.95;;
10230;SDS011;62604;49.432;8.680;2023-07-31T05:17:13;6.00;;;4.32;;
10230;SDS011;62604;49.432;8.680;2023-07-31T05:19:40;4.57;;;4.18;;
10230;SDS011;62604;49.432;8.680;2023-07-31T05:22:07;4.50;;;4.20;;
10230;SDS011;62604;49.432;8.680;2023-07-31T05:24:34;5.03;;;4.40;;
10230;SDS011;62604;49.432;8.680;2023-07-31T05:27:03;4.63;;;4.32;;
10230;SDS011;62604;49.432;8.680;2023-07-31T05:29:30;4.70;;;4.30;;
10230;SDS011;62604;49.432;8.680;2023-07-31T05:31:57;6.28;;;4.50;;
10230;SDS011;62604;49.432;8.680;2023-07-31T05:34:25;4.25;;;3.95;;
10230;SDS011;62604;49.432;8.680;2023-07-31T05:36:52;4.60;;;4.30;;
10230;SDS011;62604;49.432;8.680;2023-07-31T05:39:19;4.60;;;4.30;;
10230;SDS011;62604;49.432;8.680;2023-07-31T05:41:46;6.10;;;5.70;;
10230;SDS011;62604;49.432;8.680;2023-07-31T05:45:06;7.07;;;6.38;;
10230;SDS011;62604;49.432;8.680;2023-07-31T05:47:34;6.70;;;6.30;;
10230;SDS011;62604;49.432;8.680;2023-07-31T05:50:02;6.43;;;6.03;;
10230;SDS011;62604;49.432;8.680;2023-07-31T05:52:30;7.00;;;6.40;;
10230;SDS011;62604;49.432;8.680;2023-07-31T05:55:05;6.63;;;6.22;;
10230;SDS011;62604;49.432;8.680;2023-07-31T05:57:34;6.78;;;6.22;;
10230;SDS011;62604;49.432;8.680;2023-07-31T06:00:03;7.10;;;6.43;;
10230;SDS011;62604;49.432;8.680;2023-07-31T06:02:35;6.20;;;5.90;;
10230;SDS011;62604;49.432;8.680;2023-07-31T06:05:04;6.53;;;6.03;;
10230;SDS011;62604;49.432;8.680;2023-07-31T06:07:32;6.55;;;6.05;;
10230;SDS011;62604;49.432;8.680;2023-07-31T06:10:00;6.70;;;6.20;;
10230;SDS011;62604;49.432;8.680;2023-07-31T06:12:30;6.45;;;6.07;;
10230;SDS011;62604;49.432;8.680;2023-07-31T06:15:02;6.75;;;6.15;;
10230;SDS011;62604;49.432;8.680;2023-07-31T06:17:31;6.25;;;5.85;;
10230;SDS011;62604;49.432;8.680;2023-07-31T06:19:58;6.85;;;6.30;;
10230;SDS011;62604;49.432;8.680;2023-07-31T06:22:25;6.28;;;5.88;;
10230;SDS011;62604;49.432;8.680;2023-07-31T06:24:54;6.93;;;6.32;;
10230;SDS011;62604;49.432;8.680;2023-07-31T06:27:22;7.30;;;6.60;;
10230;SDS011;62604;49.432;8.680;2023-07-31T06:29:51;6.50;;;6.00;;
10230;SDS011;62604;49.432;8.680;2023-07-31T06:32:19;6.70;;;6.20;;
10230;SDS011;62604;49.432;8.680;2023-07-31T06:34:48;6.78;;;6.28;;
10230;SDS011;62604;49.432;8.680;2023-07-31T06:37:15;6.78;;;6.38;;
10230;SDS011;62604;49.432;8.680;2023-07-31T06:39:44;7.03;;;6.38;;
10230;SDS011;62604;49.432;8.680;2023-07-31T06:42:11;6.47;;;6.07;;
10230;SDS011;62604;49.432;8.680;2023-07-31T06:44:38;6.35;;;5.85;;
10230;SDS011;62604;49.432;8.680;2023-07-31T06:47:09;6.75;;;6.13;;
10230;SDS011;62604;49.432;8.680;2023-07-31T06:49:36;6.85;;;6.35;;
10230;SDS011;62604;49.432;8.680;2023-07-31T06:52:07;7.25;;;6.30;;
10230;SDS011;62604;49.432;8.680;2023-07-31T06:54:36;6.78;;;6.28;;
10230;SDS011;62604;49.432;8.680;2023-07-31T06:57:04;6.40;;;6.00;;
10230;SDS011;62604;49.432;8.680;2023-07-31T06:59:31;6.50;;;6.00;;
10230;SDS011;62604;49.432;8.680;2023-07-31T07:01:58;6.50;;;5.90;;
10230;SDS011;62604;49.432;8.680;2023-07-31T07:04:25;6.55;;;6.00;;
10230;SDS011;62604;49.432;8.680;2023-07-31T07:06:52;6.07;;;5.75;;
10230;SDS011;62604;49.432;8.680;2023-07-31T07:09:21;6.63;;;6.03;;
10230;SDS011;62604;49.432;8.680;2023-07-31T07:11:48;7.07;;;6.22;;
10230;SDS011;62604;49.432;8.680;2023-07-31T07:14:15;6.43;;;6.03;;
10230;SDS011;62604;49.432;8.680;2023-07-31T07:16:42;6.43;;;6.03;;
10230;SDS011;62604;49.432;8.680;2023-07-31T07:19:09;7.20;;;6.18;;
10230;SDS011;62604;49.432;8.680;2023-07-31T07:21:36;6.68;;;6.13;;
10230;SDS011;62604;49.432;8.680;2023-07-31T07:24:04;6.18;;;5.78;;
10230;SDS011;62604;49.432;8.680;2023-07-31T07:26:32;6.90;;;6.20;;
10230;SDS011;62604;49.432;8.680;2023-07-31T07:28:59;6.40;;;5.90;;
10230;SDS011;62604;49.432;8.680;2023-07-31T07:31:28;7.88;;;6.40;;
10230;SDS011;62604;49.432;8.680;2023-07-31T07:33:55;6.50;;;6.10;;
10230;SDS011;62604;49.432;8.680;2023-07-31T07:36:22;6.43;;;6.03;;
10230;SDS011;62604;49.432;8.680;2023-07-31T07:38:49;6.80;;;6.30;;
10230;SDS011;62604;49.432;8.680;2023-07-31T07:41:16;6.60;;;6.20;;
10230;SDS011;62604;49.432;8.680;2023-07-31T07:43:46;6.85;;;6.20;;
10230;SDS011;62604;49.432;8.680;2023-07-31T07:46:13;6.63;;;5.97;;
10230;SDS011;62604;49.432;8.680;2023-07-31T07:48:43;6.85;;;6.35;;
10230;SDS011;62604;49.432;8.680;2023-07-31T07:51:13;6.50;;;6.00;;
10230;SDS011;62604;49.432;8.680;2023-07-31T07:53:41;7.30;;;6.10;;
10230;SDS011;62604;49.432;8.680;2023-07-31T07:56:09;6.43;;;5.95;;
10230;SDS011;62604;49.432;8.680;2023-07-31T07:58:37;6.28;;;5.75;;
10230;SDS011;62604;49.432;8.680;2023-07-31T08:01:05;6.60;;;6.05;;
10230;SDS011;62604;49.432;8.680;2023-07-31T08:03:33;6.45;;;6.05;;
10230;SDS011;62604;49.432;8.680;2023-07-31T08:06:00;6.32;;;5.93;;
10230;SDS011;62604;49.432;8.680;2023-07-31T08:08:27;7.40;;;6.70;;
10230;SDS011;62604;49.432;8.680;2023-07-31T08:10:55;7.00;;;6.15;;
10230;SDS011;62604;49.432;8.680;2023-07-31T08:13:22;6.43;;;5.93;;
10230;SDS011;62604;49.432;8.680;2023-07-31T08:15:49;7.30;;;6.50;;
10230;SDS011;62604;49.432;8.680;2023-07-31T08:18:17;6.85;;;6.18;;
10230;SDS011;62604;49.432;8.680;2023-07-31T08:20:45;6.90;;;6.40;;
10230;SDS011;62604;49.432;8.680;2023-07-31T08:23:12;6.57;;;5.97;;
10230;SDS011;62604;49.432;8.680;2023-07-31T08:25:39;6.80;;;6.30;;
10230;SDS011;62604;49.432;8.680;2023-07-31T08:28:06;6.43;;;6.03;;
10230;SDS011;62604;49.432;8.680;2023-07-31T08:30:34;6.53;;;5.97;;
10230;SDS011;62604;49.432;8.680;2023-07-31T08:33:01;7.13;;;6.63;;
10230;SDS011;62604;49.432;8.680;2023-07-31T08:35:30;7.50;;;6.13;;
10230;SDS011;62604;49.432;8.680;2023-07-31T08:37:59;6.68;;;6.10;;
10230;SDS011;62604;49.432;8.680;2023-07-31T08:40:28;6.40;;;6.10;;
10230;SDS011;62604;49.432;8.680;2023-07-31T08:42:56;6.85;;;6.43;;
10230;SDS011;62604;49.432;8.680;2023-07-31T08:45:27;6.63;;;6.22;;
10230;SDS011;62604;49.432;8.680;2023-07-31T08:47:54;6.57;;;6.18;;
10230;SDS011;62604;49.432;8.680;2023-07-31T08:50:22;6.55;;;6.15;;
10230;SDS011;62604;49.432;8.680;2023-07-31T08:52:52;7.90;;;7.15;;
10230;SDS011;62604;49.432;8.680;2023-07-31T08:55:19;7.45;;;6.85;;
10230;SDS011;62604;49.432;8.680;2023-07-31T08:57:50;6.93;;;6.40;;
10230;SDS011;62604;49.432;8.680;2023-07-31T09:00:19;6.95;;;6.43;;
10230;SDS011;62604;49.432;8.680;2023-07-31T09:02:51;6.72;;;6.10;;
10230;SDS011;62604;49.432;8.680;2023-07-31T09:05:24;7.00;;;6.50;;
10230;SDS011;62604;49.432;8.680;2023-07-31T09:07:56;7.05;;;6.45;;
10230;SDS011;62604;49.432;8.680;2023-07-31T09:10:24;6.70;;;6.20;;
10230;SDS011;62604;49.432;8.680;2023-07-31T09:12:52;7.15;;;6.55;;
10230;SDS011;62604;49.432;8.680;2023-07-31T09:15:19;7.40;;;6.72;;
10230;SDS011;62604;49.432;8.680;2023-07-31T09:17:48;7.15;;;6.63;;
10230;SDS011;62604;49.432;8.680;2023-07-31T09:20:27;7.25;;;6.75;;
10230;SDS011;62604;49.432;8.680;2023-07-31T09:22:56;7.00;;;6.50;;
10230;SDS011;62604;49.432;8.680;2023-07-31T09:25:33;7.18;;;6.63;;
10230;SDS011;62604;49.432;8.680;2023-07-31T09:28:01;6.85;;;6.18;;
10230;SDS011;62604;49.432;8.680;2023-07-31T09:30:30;7.60;;;7.00;;
10230;SDS011;62604;49.432;8.680;2023-07-31T09:33:03;7.40;;;6.65;;
10230;SDS011;62604;49.432;8.680;2023-07-31T09:35:32;6.78;;;6.38;;
10230;SDS011;62604;49.432;8.680;2023-07-31T09:38:13;7.53;;;6.93;;
10230;SDS011;62604;49.432;8.680;2023-07-31T09:40:44;6.90;;;6.50;;
10230;SDS011;62604;49.432;8.680;2023-07-31T09:43:17;7.20;;;6.55;;
10230;SDS011;62604;49.432;8.680;2023-07-31T09:45:46;7.15;;;6.55;;
10230;SDS011;62604;49.432;8.680;2023-07-31T09:48:15;7.38;;;6.88;;
10230;SDS011;62604;49.432;8.680;2023-07-31T09:50:44;7.25;;;6.75;;
10230;SDS011;62604;49.432;8.680;2023-07-31T09:53:15;8.07;;;7.40;;
10230;SDS011;62604;49.432;8.680;2023-07-31T09:55:43;6.85;;;6.40;;
10230;SDS011;62604;49.432;8.680;2023-07-31T09:58:11;7.35;;;6.60;;
10230;SDS011;62604;49.432;8.680;2023-07-31T10:00:40;7.45;;;6.85;;
10230;SDS011;62604;49.432;8.680;2023-07-31T10:03:08;7.13;;;6.72;;
10230;SDS011;62604;49.432;8.680;2023-07-31T10:05:37;7.60;;;7.00;;
10230;SDS011;62604;49.432;8.680;2023-07-31T10:08:07;7.50;;;6.95;;
10230;SDS011;62604;49.432;8.680;2023-07-31T10:10:37;7.15;;;6.72;;
10230;SDS011;62604;49.432;8.680;2023-07-31T10:13:08;7.35;;;6.85;;
10230;SDS011;62604;49.432;8.680;2023-07-31T10:15:36;7.18;;;6.68;;
10230;SDS011;62604;49.432;8.680;2023-07-31T10:18:03;7.85;;;7.10;;
10230;SDS011;62604;49.432;8.680;2023-07-31T10:20:33;7.32;;;6.70;;
10230;SDS011;62604;49.432;8.680;2023-07-31T10:23:01;7.55;;;7.00;;
10230;SDS011;62604;49.432;8.680;2023-07-31T10:25:29;7.25;;;6.75;;
10230;SDS011;62604;49.432;8.680;2023-07-31T10:28:06;7.70;;;7.07;;
10230;SDS011;62604;49.432;8.680;2023-07-31T10:30:34;7.70;;;7.10;;
10230;SDS011;62604;49.432;8.680;2023-07-31T10:33:04;7.18;;;6.70;;
10230;SDS011;62604;49.432;8.680;2023-07-31T10:35:32;7.75;;;7.00;;
10230;SDS011;62604;49.432;8.680;2023-07-31T10:38:08;7.43;;;6.80;;
10230;SDS011;62604;49.432;8.680;2023-07-31T10:40:40;8.07;;;7.05;;
10230;SDS011;62604;49.432;8.680;2023-07-31T10:43:09;7.35;;;6.85;;
10230;SDS011;62604;49.432;8.680;2023-07-31T10:45:52;7.55;;;6.95;;
10230;SDS011;62604;49.432;8.680;2023-07-31T10:48:20;7.20;;;6.60;;
10230;SDS011;62604;49.432;8.680;2023-07-31T10:50:49;7.70;;;7.00;;
10230;SDS011;62604;49.432;8.680;2023-07-31T10:53:24;8.07;;;7.30;;
10230;SDS011;62604;49.432;8.680;2023-07-31T10:55:53;7.40;;;6.80;;
10230;SDS011;62604;49.432;8.680;2023-07-31T10:58:26;7.32;;;6.60;;
10230;SDS011;62604;49.432;8.680;2023-07-31T11:00:55;7.47;;;6.80;;
10230;SDS011;62604;49.432;8.680;2023-07-31T11:03:24;7.95;;;7.18;;
10230;SDS011;62604;49.432;8.680;2023-07-31T11:05:59;7.55;;;6.95;;
10230;SDS011;62604;49.432;8.680;2023-07-31T11:08:41;7.85;;;6.82;;
10230;SDS011;62604;49.432;8.680;2023-07-31T11:11:14;6.68;;;6.28;;
10230;SDS011;62604;49.432;8.680;2023-07-31T11:13:44;7.53;;;6.90;;
10230;SDS011;62604;49.432;8.680;2023-07-31T11:16:15;12.20;;;6.75;;
10230;SDS011;62604;49.432;8.680;2023-07-31T11:18:44;7.20;;;6.60;;
10230;SDS011;62604;49.432;8.680;2023-07-31T11:24:43;5.50;;;4.80;;
10230;SDS011;62604;49.432;8.680;2023-07-31T11:27:10;5.43;;;5.03;;
10230;SDS011;62604;49.432;8.680;2023-07-31T11:29:39;5.65;;;5.15;;
10230;SDS011;62604;49.432;8.680;2023-07-31T11:32:15;5.13;;;4.72;;
10230;SDS011;62604;49.432;8.680;2023-07-31T11:34:50;5.15;;;4.68;;
10230;SDS011;62604;49.432;8.680;2023-07-31T11:37:19;5.63;;;5.13;;
10230;SDS011;62604;49.432;8.680;2023-07-31T11:39:59;5.22;;;4.88;;
10230;SDS011;62604;49.432;8.680;2023-07-31T11:42:27;5.00;;;4.70;;
10230;SDS011;62604;49.432;8.680;2023-07-31T11:44:54;5.85;;;5.28;;
10230;SDS011;62604;49.432;8.680;2023-07-31T11:47:21;5.20;;;4.88;;
10230;SDS011;62604;49.432;8.680;2023-07-31T11:49:50;5.40;;;4.93;;
10230;SDS011;62604;49.432;8.680;2023-07-31T11:52:18;5.00;;;4.60;;
10230;SDS011;62604;49.432;8.680;2023-07-31T11:54:45;5.10;;;4.70;;
10230;SDS011;62604;49.432;8.680;2023-07-31T11:57:15;5.10;;;4.70;;
10230;SDS011;62604;49.432;8.680;2023-07-31T11:59:43;5.20;;;4.80;;
10230;SDS011;62604;49.432;8.680;2023-07-31T12:02:12;5.43;;;4.93;;
10230;SDS011;62604;49.432;8.680;2023-07-31T12:04:42;9.93;;;5.30;;
10230;SDS011;62604;49.432;8.680;2023-07-31T12:07:12;5.30;;;4.80;;
10230;SDS011;62604;49.432;8.680;2023-07-31T12:09:39;5.25;;;4.75;;
10230;SDS011;62604;49.432;8.680;2023-07-31T12:12:21;7.45;;;5.05;;
10230;SDS011;62604;49.432;8.680;2023-07-31T12:14:49;5.10;;;4.70;;
10230;SDS011;62604;49.432;8.680;2023-07-31T12:17:16;6.65;;;5.35;;
10230;SDS011;62604;49.432;8.680;2023-07-31T12:19:45;5.50;;;4.95;;
10230;SDS011;62604;49.432;8.680;2023-07-31T12:22:13;5.70;;;5.10;;
10230;SDS011;62604;49.432;8.680;2023-07-31T12:24:41;5.40;;;4.93;;
10230;SDS011;62604;49.432;8.680;2023-07-31T12:27:10;5.15;;;4.70;;
10230;SDS011;62604;49.432;8.680;2023-07-31T12:29:41;5.00;;;4.70;;
10230;SDS011;62604;49.432;8.680;2023-07-31T12:32:19;5.53;;;4.90;;
10230;SDS011;62604;49.432;8.680;2023-07-31T12:34:49;5.53;;;5.10;;
10230;SDS011;62604;49.432;8.680;2023-07-31T12:37:16;5.75;;;5.00;;
10230;SDS011;62604;49.432;8.680;2023-07-31T12:39:43;5.03;;;4.72;;
10230;SDS011;62604;49.432;8.680;2023-07-31T12:42:12;5.38;;;5.00;;
10230;SDS011;62604;49.432;8.680;2023-07-31T12:44:42;5.40;;;5.00;;
10230;SDS011;62604;49.432;8.680;2023-07-31T12:47:15;5.28;;;4.88;;
10230;SDS011;62604;49.432;8.680;2023-07-31T12:49:44;5.15;;;4.72;;
10230;SDS011;62604;49.432;8.680;2023-07-31T12:52:11;5.57;;;5.10;;
10230;SDS011;62604;49.432;8.680;2023-07-31T12:54:39;6.20;;;4.80;;
10230;SDS011;62604;49.432;8.680;2023-07-31T12:57:06;6.05;;;5.03;;
10230;SDS011;62604;49.432;8.680;2023-07-31T12:59:34;5.20;;;4.90;;
10230;SDS011;62604;49.432;8.680;2023-07-31T13:02:03;7.13;;;4.78;;
10230;SDS011;62604;49.432;8.680;2023-07-31T13:04:32;5.13;;;4.75;;
10230;SDS011;62604;49.432;8.680;2023-07-31T13:06:59;6.10;;;4.68;;
10230;SDS011;62604;49.432;8.680;2023-07-31T13:09:27;7.82;;;4.90;;
10230;SDS011;62604;49.432;8.680;2023-07-31T13:11:54;6.25;;;4.57;;
10230;SDS011;62604;49.432;8.680;2023-07-31T13:14:22;5.43;;;4.93;;
10230;SDS011;62604;49.432;8.680;2023-07-31T13:16:49;4.88;;;4.55;;
10230;SDS011;62604;49.432;8.680;2023-07-31T13:19:18;5.25;;;4.85;;
10230;SDS011;62604;49.432;8.680;2023-07-31T13:21:46;7.70;;;5.10;;
10230;SDS011;62604;49.432;8.680;2023-07-31T13:24:13;4.93;;;4.53;;
10230;SDS011;62604;49.432;8.680;2023-07-31T13:26:40;4.93;;;4.55;;
10230;SDS011;62604;49.432;8.680;2023-07-31T13:29:07;6.45;;;4.40;;
10230;SDS011;62604;49.432;8.680;2023-07-31T13:31:35;9.35;;;5.30;;
10230;SDS011;62604;49.432;8.680;2023-07-31T13:34:05;4.93;;;4.55;;
10230;SDS011;62604;49.432;8.680;2023-07-31T13:36:37;5.43;;;4.93;;
10230;SDS011;62604;49.432;8.680;2023-07-31T13:39:04;8.70;;;5.60;;
10230;SDS011;62604;49.432;8.680;2023-07-31T13:41:31;4.95;;;4.65;;
10230;SDS011;62604;49.432;8.680;2023-07-31T13:43:59;5.22;;;4.80;;
10230;SDS011;62604;49.432;8.680;2023-07-31T13:46:26;5.57;;;5.07;;
10230;SDS011;62604;49.432;8.680;2023-07-31T13:48:53;5.38;;;4.93;;
10230;SDS011;62604;49.432;8.680;2023-07-31T13:51:20;5.78;;;5.10;;
10230;SDS011;62604;49.432;8.680;2023-07-31T13:53:50;5.50;;;5.10;;
10230;SDS011;62604;49.432;8.680;2023-07-31T13:56:17;5.10;;;4.75;;
10230;SDS011;62604;49.432;8.680;2023-07-31T13:58:45;6.55;;;4.82;;
10230;SDS011;62604;49.432;8.680;2023-07-31T14:01:12;5.05;;;4.68;;
10230;SDS011;62604;49.432;8.680;2023-07-31T14:03:39;6.85;;;4.70;;
10230;SDS011;62604;49.432;8.680;2023-07-31T14:06:06;6.57;;;4.95;;
10230;SDS011;62604;49.432;8.680;2023-07-31T14:08:36;5.15;;;4.75;;
10230;SDS011;62604;49.432;8.680;2023-07-31T14:11:05;5.10;;;4.75;;
10230;SDS011;62604;49.432;8.680;2023-07-31T14:13:32;6.22;;;4.93;;
10230;SDS011;62604;49.432;8.680;2023-07-31T14:15:59;4.90;;;4.50;;
10230;SDS011;62604;49.432;8.680;2023-07-31T14:18:26;5.13;;;4.72;;
10230;SDS011;62604;49.432;8.680;2023-07-31T14:20:53;5.70;;;5.30;;
10230;SDS011;62604;49.432;8.680;2023-07-31T14:23:20;5.15;;;4.75;;
10230;SDS011;62604;49.432;8.680;2023-07-31T14:25:47;5.40;;;5.00;;
10230;SDS011;62604;49.432;8.680;2023-07-31T14:28:19;5.15;;;4.75;;
10230;SDS011;62604;49.432;8.680;2023-07-31T14:30:47;5.68;;;5.18;;
10230;SDS011;62604;49.432;8.680;2023-07-31T14:33:14;5.40;;;4.68;;
10230;SDS011;62604;49.432;8.680;2023-07-31T14:35:41;7.75;;;4.78;;
10230;SDS011;62604;49.432;8.680;2023-07-31T14:38:08;5.47;;;4.97;;
10230;SDS011;62604;49.432;8.680;2023-07-31T14:40:35;4.90;;;4.55;;
10230;SDS011;62604;49.432;8.680;2023-07-31T14:43:03;5.03;;;4.72;;
10230;SDS011;62604;49.432;8.680;2023-07-31T14:45:32;4.72;;;4.43;;
10230;SDS011;62604;49.432;8.680;2023-07-31T14:47:59;4.70;;;4.40;;
10230;SDS011;62604;49.432;8.680;2023-07-31T14:50:26;5.80;;;5.30;;
10230;SDS011;62604;49.432;8.680;2023-07-31T14:52:53;8.40;;;4.90;;
10230;SDS011;62604;49.432;8.680;2023-07-31T14:55:22;5.50;;;4.90;;
10230;SDS011;62604;49.432;8.680;2023-07-31T14:57:50;5.00;;;4.65;;
10230;SDS011;62604;49.432;8.680;2023-07-31T15:00:18;5.15;;;4.80;;
10230;SDS011;62604;49.432;8.680;2023-07-31T15:02:48;6.55;;;4.78;;